sensor_id;sensor_type;location;lat;lon;timestamp;P1;durP1;ratioP1;P2;durP2;ratioP2
11064;SDS011;5585;52.530;7.320;2023-01-16T00:00:54;2.47;;;0.90;;
11064;SDS011;5585;52.530;7.320;2023-01-16T00:03:22;2.80;;;0.90;;
11064;SDS011;5585;52.530;7.320;2023-01-16T00:05:48;1.77;;;0.93;;
11064;SDS011;5585;52.530;7.320;2023-01-16T00:08:15;3.67;;;1.00;;
11064;SDS011;5585;52.530;7.320;2023-01-16T00:10:42;2.13;;;0.80;;
11064;SDS011;5585;52.530;7.320;2023-01-16T00:13:11;1.90;;;0.87;;
11064;SDS011;5585;52.530;7.320;2023-01-16T00:15:37;3.50;;;0.70;;
11064;SDS011;5585;52.530;7.320;2023-01-16T00:18:04;6.23;;;1.50;;
11064;SDS011;5585;52.530;7.320;2023-01-16T00:20:30;2.17;;;0.80;;
11064;SDS011;5585;52.530;7.320;2023-01-16T00:22:57;3.30;;;1.10;;
11064;SDS011;5585;52.530;7.320;2023-01-16T00:25:23;4.93;;;0.90;;
11064;SDS011;5585;52.530;7.320;2023-01-16T00:27:50;2.70;;;1.03;;
11064;SDS011;5585;52.530;7.320;2023-01-16T00:30:18;1.93;;;0.80;;
11064;SDS011;5585;52.530;7.320;2023-01-16T00:32:45;4.03;;;0.97;;
11064;SDS011;5585;52.530;7.320;2023-01-16T00:35:12;3.47;;;0.87;;
11064;SDS011;5585;52.530;7.320;2023-01-16T00:37:39;3.50;;;1.07;;
11064;SDS011;5585;52.530;7.320;2023-01-16T00:40:06;5.17;;;1.10;;
11064;SDS011;5585;52.530;7.320;2023-01-16T00:42:32;4.93;;;0.90;;
11064;SDS011;5585;52.530;7.320;2023-01-16T00:44:59;5.27;;;1.30;;
11064;SDS011;5585;52.530;7.320;2023-01-16T00:47:27;3.03;;;0.90;;
11064;SDS011;5585;52.530;7.320;2023-01-16T00:49:53;3.43;;;0.80;;
11064;SDS011;5585;52.530;7.320;2023-01-16T00:52:20;1.83;;;0.70;;
11064;SDS011;5585;52.530;7.320;2023-01-16T00:54:47;4.23;;;0.93;;
11064;SDS011;5585;52.530;7.320;2023-01-16T00:57:13;4.37;;;1.07;;
11064;SDS011;5585;52.530;7.320;2023-01-16T00:59:40;4.40;;;1.23;;
11064;SDS011;5585;52.530;7.320;2023-01-16T01:02:07;4.03;;;1.00;;
11064;SDS011;5585;52.530;7.320;2023-01-16T01:04:35;4.40;;;1.00;;
11064;SDS011;5585;52.530;7.320;2023-01-16T01:07:01;4.00;;;0.90;;
11064;SDS011;5585;52.530;7.320;2023-01-16T01:09:28;3.70;;;1.10;;
11064;SDS011;5585;52.530;7.320;2023-01-16T01:11:55;3.23;;;1.10;;
11064;SDS011;5585;52.530;7.320;2023-01-16T01:14:22;2.03;;;1.10;;
11064;SDS011;5585;52.530;7.320;2023-01-16T01:16:48;1.80;;;1.00;;
11064;SDS011;5585;52.530;7.320;2023-01-16T01:19:15;5.47;;;1.73;;
11064;SDS011;5585;52.530;7.320;2023-01-16T01:21:43;4.13;;;1.20;;
11064;SDS011;5585;52.530;7.320;2023-01-16T01:24:09;2.10;;;0.83;;
11064;SDS011;5585;52.530;7.320;2023-01-16T01:26:36;2.57;;;1.00;;
11064;SDS011;5585;52.530;7.320;2023-01-16T01:29:03;3.13;;;0.90;;
11064;SDS011;5585;52.530;7.320;2023-01-16T01:31:30;3.63;;;0.87;;
11064;SDS011;5585;52.530;7.320;2023-01-16T01:33:56;2.40;;;0.70;;
11064;SDS011;5585;52.530;7.320;2023-01-16T01:36:23;2.23;;;0.83;;
11064;SDS011;5585;52.530;7.320;2023-01-16T01:38:50;5.47;;;1.33;;
11064;SDS011;5585;52.530;7.320;2023-01-16T01:41:18;5.50;;;1.40;;
11064;SDS011;5585;52.530;7.320;2023-01-16T01:43:45;2.80;;;1.00;;
11064;SDS011;5585;52.530;7.320;2023-01-16T01:46:15;5.13;;;1.10;;
11064;SDS011;5585;52.530;7.320;2023-01-16T01:48:44;2.90;;;1.13;;
11064;SDS011;5585;52.530;7.320;2023-01-16T01:51:12;4.23;;;1.07;;
11064;SDS011;5585;52.530;7.320;2023-01-16T01:53:41;3.30;;;1.17;;
11064;SDS011;5585;52.530;7.320;2023-01-16T01:56:10;2.17;;;0.90;;
11064;SDS011;5585;52.530;7.320;2023-01-16T01:58:39;3.70;;;1.00;;
11064;SDS011;5585;52.530;7.320;2023-01-16T02:01:06;3.20;;;0.73;;
11064;SDS011;5585;52.530;7.320;2023-01-16T02:03:32;3.93;;;1.00;;
11064;SDS011;5585;52.530;7.320;2023-01-16T02:06:02;3.20;;;1.10;;
11064;SDS011;5585;52.530;7.320;2023-01-16T02:08:32;3.23;;;0.97;;
11064;SDS011;5585;52.530;7.320;2023-01-16T02:11:00;2.43;;;0.90;;
11064;SDS011;5585;52.530;7.320;2023-01-16T02:13:30;3.43;;;0.93;;
11064;SDS011;5585;52.530;7.320;2023-01-16T02:15:56;2.33;;;0.70;;
11064;SDS011;5585;52.530;7.320;2023-01-16T02:18:40;3.20;;;0.70;;
11064;SDS011;5585;52.530;7.320;2023-01-16T02:21:31;2.30;;;0.90;;
11064;SDS011;5585;52.530;7.320;2023-01-16T02:24:11;3.23;;;1.00;;
11064;SDS011;5585;52.530;7.320;2023-01-16T02:26:50;1.97;;;0.87;;
11064;SDS011;5585;52.530;7.320;2023-01-16T02:29:28;2.73;;;1.20;;
11064;SDS011;5585;52.530;7.320;2023-01-16T02:32:04;2.87;;;1.10;;
11064;SDS011;5585;52.530;7.320;2023-01-16T02:34:38;2.57;;;1.00;;
11064;SDS011;5585;52.530;7.320;2023-01-16T02:37:12;3.03;;;1.00;;
11064;SDS011;5585;52.530;7.320;2023-01-16T02:39:42;2.03;;;0.70;;
11064;SDS011;5585;52.530;7.320;2023-01-16T02:42:12;3.60;;;1.40;;
11064;SDS011;5585;52.530;7.320;2023-01-16T02:44:40;3.07;;;1.17;;
11064;SDS011;5585;52.530;7.320;2023-01-16T02:47:11;3.27;;;1.00;;
11064;SDS011;5585;52.530;7.320;2023-01-16T02:49:41;2.30;;;0.87;;
11064;SDS011;5585;52.530;7.320;2023-01-16T02:52:11;3.83;;;1.40;;
11064;SDS011;5585;52.530;7.320;2023-01-16T02:54:40;5.27;;;1.93;;
11064;SDS011;5585;52.530;7.320;2023-01-16T02:57:09;3.70;;;1.00;;
11064;SDS011;5585;52.530;7.320;2023-01-16T02:59:36;1.90;;;0.90;;
11064;SDS011;5585;52.530;7.320;2023-01-16T03:02:03;2.43;;;1.17;;
11064;SDS011;5585;52.530;7.320;2023-01-16T03:04:41;2.53;;;1.37;;
11064;SDS011;5585;52.530;7.320;2023-01-16T03:07:11;3.33;;;1.50;;
11064;SDS011;5585;52.530;7.320;2023-01-16T03:09:45;1.70;;;1.40;;
11064;SDS011;5585;52.530;7.320;2023-01-16T03:12:19;3.07;;;1.53;;
11064;SDS011;5585;52.530;7.320;2023-01-16T03:14:48;2.53;;;1.37;;
11064;SDS011;5585;52.530;7.320;2023-01-16T03:17:19;3.43;;;1.80;;
11064;SDS011;5585;52.530;7.320;2023-01-16T03:19:58;3.07;;;1.50;;
11064;SDS011;5585;52.530;7.320;2023-01-16T03:22:30;2.13;;;1.57;;
11064;SDS011;5585;52.530;7.320;2023-01-16T03:25:03;1.93;;;1.50;;
11064;SDS011;5585;52.530;7.320;2023-01-16T03:27:38;3.30;;;1.47;;
11064;SDS011;5585;52.530;7.320;2023-01-16T03:30:08;1.90;;;1.67;;
11064;SDS011;5585;52.530;7.320;2023-01-16T03:32:37;2.00;;;1.67;;
11064;SDS011;5585;52.530;7.320;2023-01-16T03:35:07;1.90;;;1.70;;
11064;SDS011;5585;52.530;7.320;2023-01-16T03:37:36;2.10;;;1.67;;
11064;SDS011;5585;52.530;7.320;2023-01-16T03:40:06;2.43;;;1.80;;
11064;SDS011;5585;52.530;7.320;2023-01-16T03:42:34;2.67;;;1.90;;
11064;SDS011;5585;52.530;7.320;2023-01-16T03:45:05;2.63;;;1.73;;
11064;SDS011;5585;52.530;7.320;2023-01-16T03:47:33;1.87;;;1.63;;
11064;SDS011;5585;52.530;7.320;2023-01-16T03:50:01;2.43;;;1.50;;
11064;SDS011;5585;52.530;7.320;2023-01-16T03:52:32;1.93;;;1.57;;
11064;SDS011;5585;52.530;7.320;2023-01-16T03:55:02;2.43;;;1.70;;
11064;SDS011;5585;52.530;7.320;2023-01-16T03:57:31;2.10;;;1.90;;
11064;SDS011;5585;52.530;7.320;2023-01-16T03:59:59;2.63;;;1.70;;
11064;SDS011;5585;52.530;7.320;2023-01-16T04:02:27;2.03;;;1.27;;
11064;SDS011;5585;52.530;7.320;2023-01-16T04:04:58;1.73;;;1.63;;
11064;SDS011;5585;52.530;7.320;2023-01-16T04:07:26;2.07;;;1.53;;
11064;SDS011;5585;52.530;7.320;2023-01-16T04:09:58;2.17;;;1.40;;
11064;SDS011;5585;52.530;7.320;2023-01-16T04:12:27;2.87;;;1.60;;
11064;SDS011;5585;52.530;7.320;2023-01-16T04:14:55;2.80;;;1.30;;
11064;SDS011;5585;52.530;7.320;2023-01-16T04:17:22;2.17;;;1.20;;
11064;SDS011;5585;52.530;7.320;2023-01-16T04:19:49;3.30;;;1.40;;
11064;SDS011;5585;52.530;7.320;2023-01-16T04:22:18;3.53;;;1.20;;
11064;SDS011;5585;52.530;7.320;2023-01-16T04:24:45;2.10;;;1.20;;
11064;SDS011;5585;52.530;7.320;2023-01-16T04:27:13;1.40;;;1.30;;
11064;SDS011;5585;52.530;7.320;2023-01-16T04:29:40;4.33;;;1.33;;
11064;SDS011;5585;52.530;7.320;2023-01-16T04:32:06;3.20;;;1.43;;
11064;SDS011;5585;52.530;7.320;2023-01-16T04:34:33;2.97;;;1.33;;
11064;SDS011;5585;52.530;7.320;2023-01-16T04:36:59;1.63;;;1.27;;
11064;SDS011;5585;52.530;7.320;2023-01-16T04:39:26;3.50;;;1.40;;
11064;SDS011;5585;52.530;7.320;2023-01-16T04:41:52;2.30;;;1.43;;
11064;SDS011;5585;52.530;7.320;2023-01-16T04:44:20;2.77;;;1.40;;
11064;SDS011;5585;52.530;7.320;2023-01-16T04:46:47;1.30;;;1.20;;
11064;SDS011;5585;52.530;7.320;2023-01-16T04:49:13;1.50;;;1.40;;
11064;SDS011;5585;52.530;7.320;2023-01-16T04:51:40;2.33;;;1.50;;
11064;SDS011;5585;52.530;7.320;2023-01-16T04:54:07;2.93;;;1.33;;
11064;SDS011;5585;52.530;7.320;2023-01-16T04:56:33;2.90;;;1.37;;
11064;SDS011;5585;52.530;7.320;2023-01-16T04:59:01;1.83;;;1.10;;
11064;SDS011;5585;52.530;7.320;2023-01-16T05:01:28;4.30;;;1.23;;
11064;SDS011;5585;52.530;7.320;2023-01-16T05:03:59;2.20;;;1.40;;
11064;SDS011;5585;52.530;7.320;2023-01-16T05:06:26;2.80;;;1.50;;
11064;SDS011;5585;52.530;7.320;2023-01-16T05:08:52;4.33;;;1.40;;
11064;SDS011;5585;52.530;7.320;2023-01-16T05:11:19;2.47;;;1.30;;
11064;SDS011;5585;52.530;7.320;2023-01-16T05:13:45;2.83;;;1.63;;
11064;SDS011;5585;52.530;7.320;2023-01-16T05:16:12;4.33;;;2.20;;
11064;SDS011;5585;52.530;7.320;2023-01-16T05:18:40;5.27;;;1.93;;
11064;SDS011;5585;52.530;7.320;2023-01-16T05:21:06;3.33;;;1.67;;
11064;SDS011;5585;52.530;7.320;2023-01-16T05:23:33;2.53;;;1.83;;
11064;SDS011;5585;52.530;7.320;2023-01-16T05:26:00;3.90;;;1.70;;
11064;SDS011;5585;52.530;7.320;2023-01-16T05:28:26;3.23;;;1.50;;
11064;SDS011;5585;52.530;7.320;2023-01-16T05:30:53;3.60;;;1.50;;
11064;SDS011;5585;52.530;7.320;2023-01-16T05:33:19;5.00;;;1.70;;
11064;SDS011;5585;52.530;7.320;2023-01-16T05:35:47;2.87;;;1.43;;
11064;SDS011;5585;52.530;7.320;2023-01-16T05:38:18;3.27;;;1.20;;
11064;SDS011;5585;52.530;7.320;2023-01-16T05:40:45;4.20;;;1.30;;
11064;SDS011;5585;52.530;7.320;2023-01-16T05:43:12;3.93;;;1.30;;
11064;SDS011;5585;52.530;7.320;2023-01-16T05:45:38;3.67;;;1.30;;
11064;SDS011;5585;52.530;7.320;2023-01-16T05:48:05;3.93;;;1.50;;
11064;SDS011;5585;52.530;7.320;2023-01-16T05:50:42;3.57;;;1.27;;
11064;SDS011;5585;52.530;7.320;2023-01-16T05:53:10;3.60;;;1.20;;
11064;SDS011;5585;52.530;7.320;2023-01-16T05:55:38;4.17;;;1.50;;
11064;SDS011;5585;52.530;7.320;2023-01-16T05:58:05;2.33;;;1.30;;
11064;SDS011;5585;52.530;7.320;2023-01-16T06:00:32;4.90;;;1.30;;
11064;SDS011;5585;52.530;7.320;2023-01-16T06:02:58;3.97;;;1.50;;
11064;SDS011;5585;52.530;7.320;2023-01-16T06:05:25;3.43;;;1.70;;
11064;SDS011;5585;52.530;7.320;2023-01-16T06:07:53;2.17;;;1.27;;
11064;SDS011;5585;52.530;7.320;2023-01-16T06:10:21;3.57;;;1.63;;
11064;SDS011;5585;52.530;7.320;2023-01-16T06:12:48;2.33;;;1.20;;
11064;SDS011;5585;52.530;7.320;2023-01-16T06:15:14;2.97;;;1.70;;
11064;SDS011;5585;52.530;7.320;2023-01-16T06:17:41;3.50;;;1.30;;
11064;SDS011;5585;52.530;7.320;2023-01-16T06:20:08;4.10;;;1.60;;
11064;SDS011;5585;52.530;7.320;2023-01-16T06:22:35;3.17;;;1.97;;
11064;SDS011;5585;52.530;7.320;2023-01-16T06:25:02;4.60;;;1.77;;
11064;SDS011;5585;52.530;7.320;2023-01-16T06:27:30;2.90;;;1.70;;
11064;SDS011;5585;52.530;7.320;2023-01-16T06:29:57;4.13;;;1.67;;
11064;SDS011;5585;52.530;7.320;2023-01-16T06:32:23;3.70;;;2.13;;
11064;SDS011;5585;52.530;7.320;2023-01-16T06:34:50;4.77;;;2.30;;
11064;SDS011;5585;52.530;7.320;2023-01-16T06:37:16;4.77;;;2.17;;
11064;SDS011;5585;52.530;7.320;2023-01-16T06:39:43;3.97;;;2.10;;
11064;SDS011;5585;52.530;7.320;2023-01-16T06:42:09;3.67;;;1.87;;
11064;SDS011;5585;52.530;7.320;2023-01-16T06:44:37;2.67;;;1.97;;
11064;SDS011;5585;52.530;7.320;2023-01-16T06:47:04;3.23;;;2.30;;
11064;SDS011;5585;52.530;7.320;2023-01-16T06:49:32;2.60;;;1.93;;
11064;SDS011;5585;52.530;7.320;2023-01-16T06:51:58;4.47;;;2.20;;
11064;SDS011;5585;52.530;7.320;2023-01-16T06:54:25;4.97;;;2.07;;
11064;SDS011;5585;52.530;7.320;2023-01-16T06:56:52;5.83;;;1.83;;
11064;SDS011;5585;52.530;7.320;2023-01-16T06:59:18;4.43;;;1.70;;
11064;SDS011;5585;52.530;7.320;2023-01-16T07:01:46;3.57;;;1.90;;
11064;SDS011;5585;52.530;7.320;2023-01-16T07:04:13;3.23;;;1.70;;
11064;SDS011;5585;52.530;7.320;2023-01-16T07:06:39;4.27;;;1.90;;
11064;SDS011;5585;52.530;7.320;2023-01-16T07:09:07;2.97;;;1.60;;
11064;SDS011;5585;52.530;7.320;2023-01-16T07:11:33;2.97;;;1.73;;
11064;SDS011;5585;52.530;7.320;2023-01-16T07:14:00;4.77;;;2.17;;
11064;SDS011;5585;52.530;7.320;2023-01-16T07:16:44;2.53;;;1.60;;
11064;SDS011;5585;52.530;7.320;2023-01-16T07:19:29;3.43;;;1.73;;
11064;SDS011;5585;52.530;7.320;2023-01-16T07:22:13;3.33;;;1.60;;
11064;SDS011;5585;52.530;7.320;2023-01-16T07:24:58;4.63;;;1.33;;
11064;SDS011;5585;52.530;7.320;2023-01-16T07:27:25;3.67;;;1.40;;
11064;SDS011;5585;52.530;7.320;2023-01-16T07:29:52;2.17;;;1.20;;
11064;SDS011;5585;52.530;7.320;2023-01-16T07:32:19;3.20;;;1.20;;
11064;SDS011;5585;52.530;7.320;2023-01-16T07:34:47;2.73;;;1.37;;
11064;SDS011;5585;52.530;7.320;2023-01-16T07:37:13;2.00;;;1.10;;
11064;SDS011;5585;52.530;7.320;2023-01-16T07:39:40;4.37;;;1.00;;
11064;SDS011;5585;52.530;7.320;2023-01-16T07:42:06;1.10;;;0.90;;
11064;SDS011;5585;52.530;7.320;2023-01-16T07:44:33;3.67;;;1.10;;
11064;SDS011;5585;52.530;7.320;2023-01-16T07:47:00;2.50;;;1.10;;
11064;SDS011;5585;52.530;7.320;2023-01-16T07:49:26;1.57;;;0.70;;
11064;SDS011;5585;52.530;7.320;2023-01-16T07:51:54;1.70;;;0.83;;
11064;SDS011;5585;52.530;7.320;2023-01-16T07:54:21;2.53;;;0.90;;
11064;SDS011;5585;52.530;7.320;2023-01-16T07:56:48;2.80;;;1.20;;
11064;SDS011;5585;52.530;7.320;2023-01-16T07:59:15;2.93;;;1.20;;
11064;SDS011;5585;52.530;7.320;2023-01-16T08:01:41;2.63;;;1.10;;
11064;SDS011;5585;52.530;7.320;2023-01-16T08:04:09;2.83;;;1.07;;
11064;SDS011;5585;52.530;7.320;2023-01-16T08:06:36;2.33;;;1.23;;
11064;SDS011;5585;52.530;7.320;2023-01-16T08:09:04;1.80;;;0.97;;
11064;SDS011;5585;52.530;7.320;2023-01-16T08:11:30;2.40;;;0.70;;
11064;SDS011;5585;52.530;7.320;2023-01-16T08:14:04;1.60;;;0.73;;
11064;SDS011;5585;52.530;7.320;2023-01-16T08:16:30;1.43;;;0.70;;
11064;SDS011;5585;52.530;7.320;2023-01-16T08:18:57;2.00;;;0.60;;
11064;SDS011;5585;52.530;7.320;2023-01-16T08:21:23;1.00;;;0.60;;
11064;SDS011;5585;52.530;7.320;2023-01-16T08:23:50;0.90;;;0.60;;
11064;SDS011;5585;52.530;7.320;2023-01-16T08:26:18;2.90;;;0.90;;
11064;SDS011;5585;52.530;7.320;2023-01-16T08:28:44;1.73;;;0.90;;
11064;SDS011;5585;52.530;7.320;2023-01-16T08:31:11;1.53;;;0.73;;
11064;SDS011;5585;52.530;7.320;2023-01-16T08:33:38;1.03;;;0.70;;
11064;SDS011;5585;52.530;7.320;2023-01-16T08:36:06;2.20;;;1.10;;
11064;SDS011;5585;52.530;7.320;2023-01-16T08:38:33;1.27;;;0.70;;
11064;SDS011;5585;52.530;7.320;2023-01-16T08:41:00;2.23;;;0.90;;
11064;SDS011;5585;52.530;7.320;2023-01-16T08:43:28;2.20;;;0.60;;
11064;SDS011;5585;52.530;7.320;2023-01-16T08:46:14;1.63;;;0.60;;
11064;SDS011;5585;52.530;7.320;2023-01-16T08:48:59;0.83;;;0.53;;
11064;SDS011;5585;52.530;7.320;2023-01-16T08:51:44;1.50;;;0.50;;
11064;SDS011;5585;52.530;7.320;2023-01-16T08:54:10;1.97;;;0.50;;
11064;SDS011;5585;52.530;7.320;2023-01-16T08:56:37;2.13;;;0.90;;
11064;SDS011;5585;52.530;7.320;2023-01-16T08:59:09;1.70;;;0.63;;
11064;SDS011;5585;52.530;7.320;2023-01-16T09:01:35;2.03;;;0.60;;
11064;SDS011;5585;52.530;7.320;2023-01-16T09:04:02;0.83;;;0.50;;
11064;SDS011;5585;52.530;7.320;2023-01-16T09:06:28;1.50;;;0.60;;
11064;SDS011;5585;52.530;7.320;2023-01-16T09:08:55;1.67;;;0.60;;
11064;SDS011;5585;52.530;7.320;2023-01-16T09:11:21;2.17;;;0.70;;
11064;SDS011;5585;52.530;7.320;2023-01-16T09:14:05;3.20;;;0.90;;
11064;SDS011;5585;52.530;7.320;2023-01-16T09:16:33;2.00;;;1.10;;
11064;SDS011;5585;52.530;7.320;2023-01-16T09:19:00;1.23;;;0.80;;
11064;SDS011;5585;52.530;7.320;2023-01-16T09:21:26;2.10;;;0.90;;
11064;SDS011;5585;52.530;7.320;2023-01-16T09:23:53;1.23;;;0.63;;
11064;SDS011;5585;52.530;7.320;2023-01-16T09:26:19;0.93;;;0.53;;
11064;SDS011;5585;52.530;7.320;2023-01-16T09:28:46;2.07;;;0.77;;
11064;SDS011;5585;52.530;7.320;2023-01-16T09:31:12;2.93;;;0.90;;
11064;SDS011;5585;52.530;7.320;2023-01-16T09:33:40;1.23;;;0.70;;
11064;SDS011;5585;52.530;7.320;2023-01-16T09:36:07;1.27;;;0.80;;
11064;SDS011;5585;52.530;7.320;2023-01-16T09:38:33;2.40;;;0.63;;
11064;SDS011;5585;52.530;7.320;2023-01-16T09:41:01;2.70;;;0.80;;
11064;SDS011;5585;52.530;7.320;2023-01-16T09:43:32;1.63;;;0.87;;
11064;SDS011;5585;52.530;7.320;2023-01-16T09:46:01;1.23;;;0.80;;
11064;SDS011;5585;52.530;7.320;2023-01-16T09:48:30;1.03;;;0.70;;
11064;SDS011;5585;52.530;7.320;2023-01-16T09:50:59;1.43;;;0.77;;
11064;SDS011;5585;52.530;7.320;2023-01-16T09:53:31;4.03;;;1.20;;
11064;SDS011;5585;52.530;7.320;2023-01-16T09:56:16;1.10;;;0.60;;
11064;SDS011;5585;52.530;7.320;2023-01-16T09:59:07;2.40;;;0.70;;
11064;SDS011;5585;52.530;7.320;2023-01-16T10:01:39;1.80;;;0.60;;
11064;SDS011;5585;52.530;7.320;2023-01-16T10:04:10;2.70;;;1.10;;
11064;SDS011;5585;52.530;7.320;2023-01-16T10:06:41;0.93;;;0.53;;
11064;SDS011;5585;52.530;7.320;2023-01-16T10:09:11;2.20;;;0.70;;
11064;SDS011;5585;52.530;7.320;2023-01-16T10:11:40;1.23;;;0.70;;
11064;SDS011;5585;52.530;7.320;2023-01-16T10:14:15;2.10;;;0.67;;
11064;SDS011;5585;52.530;7.320;2023-01-16T10:16:51;2.50;;;0.80;;
11064;SDS011;5585;52.530;7.320;2023-01-16T10:19:21;3.13;;;0.90;;
11064;SDS011;5585;52.530;7.320;2023-01-16T10:22:00;2.93;;;0.77;;
11064;SDS011;5585;52.530;7.320;2023-01-16T10:24:31;1.67;;;0.80;;
11064;SDS011;5585;52.530;7.320;2023-01-16T10:27:00;3.40;;;0.90;;
11064;SDS011;5585;52.530;7.320;2023-01-16T10:29:28;2.33;;;0.77;;
11064;SDS011;5585;52.530;7.320;2023-01-16T10:31:57;2.57;;;0.73;;
11064;SDS011;5585;52.530;7.320;2023-01-16T10:34:25;4.27;;;0.80;;
11064;SDS011;5585;52.530;7.320;2023-01-16T10:36:53;1.23;;;0.80;;
11064;SDS011;5585;52.530;7.320;2023-01-16T10:39:24;1.97;;;1.10;;
11064;SDS011;5585;52.530;7.320;2023-01-16T10:41:53;2.40;;;0.80;;
11064;SDS011;5585;52.530;7.320;2023-01-16T10:44:39;1.43;;;0.67;;
11064;SDS011;5585;52.530;7.320;2023-01-16T10:47:33;1.47;;;0.77;;
11064;SDS011;5585;52.530;7.320;2023-01-16T10:50:17;3.33;;;0.90;;
11064;SDS011;5585;52.530;7.320;2023-01-16T10:52:45;2.03;;;0.80;;
11064;SDS011;5585;52.530;7.320;2023-01-16T10:55:13;1.37;;;0.80;;
11064;SDS011;5585;52.530;7.320;2023-01-16T10:57:43;2.30;;;0.90;;
11064;SDS011;5585;52.530;7.320;2023-01-16T11:00:12;1.67;;;0.80;;
11064;SDS011;5585;52.530;7.320;2023-01-16T11:02:40;3.87;;;1.00;;
11064;SDS011;5585;52.530;7.320;2023-01-16T11:05:24;2.43;;;0.70;;
11064;SDS011;5585;52.530;7.320;2023-01-16T11:07:52;1.67;;;0.80;;
11064;SDS011;5585;52.530;7.320;2023-01-16T11:10:20;2.93;;;1.00;;
11064;SDS011;5585;52.530;7.320;2023-01-16T11:12:47;2.03;;;0.80;;
11064;SDS011;5585;52.530;7.320;2023-01-16T11:15:31;2.47;;;0.93;;
11064;SDS011;5585;52.530;7.320;2023-01-16T11:18:19;3.07;;;1.13;;
11064;SDS011;5585;52.530;7.320;2023-01-16T11:20:55;3.73;;;1.40;;
11064;SDS011;5585;52.530;7.320;2023-01-16T11:23:23;3.13;;;0.70;;
11064;SDS011;5585;52.530;7.320;2023-01-16T11:25:53;1.10;;;0.73;;
11064;SDS011;5585;52.530;7.320;2023-01-16T11:28:22;3.27;;;1.13;;
11064;SDS011;5585;52.530;7.320;2023-01-16T11:30:53;1.67;;;1.00;;
11064;SDS011;5585;52.530;7.320;2023-01-16T11:33:21;2.13;;;0.70;;
11064;SDS011;5585;52.530;7.320;2023-01-16T11:35:52;2.37;;;0.93;;
11064;SDS011;5585;52.530;7.320;2023-01-16T11:38:20;1.43;;;1.10;;
11064;SDS011;5585;52.530;7.320;2023-01-16T11:40:47;3.40;;;1.00;;
11064;SDS011;5585;52.530;7.320;2023-01-16T11:43:16;1.30;;;0.90;;
11064;SDS011;5585;52.530;7.320;2023-01-16T11:46:25;2.97;;;0.90;;
11064;SDS011;5585;52.530;7.320;2023-01-16T11:48:57;1.57;;;0.70;;
11064;SDS011;5585;52.530;7.320;2023-01-16T11:51:26;2.10;;;0.97;;
11064;SDS011;5585;52.530;7.320;2023-01-16T11:53:54;1.90;;;0.80;;
11064;SDS011;5585;52.530;7.320;2023-01-16T11:56:27;1.30;;;0.90;;
11064;SDS011;5585;52.530;7.320;2023-01-16T11:59:01;1.57;;;0.70;;
11064;SDS011;5585;52.530;7.320;2023-01-16T12:01:38;4.20;;;1.10;;
11064;SDS011;5585;52.530;7.320;2023-01-16T12:04:22;1.80;;;0.83;;
11064;SDS011;5585;52.530;7.320;2023-01-16T12:06:52;0.90;;;0.70;;
11064;SDS011;5585;52.530;7.320;2023-01-16T12:09:25;4.83;;;1.10;;
11064;SDS011;5585;52.530;7.320;2023-01-16T12:12:00;1.73;;;1.00;;
11064;SDS011;5585;52.530;7.320;2023-01-16T12:14:55;2.97;;;0.90;;
11064;SDS011;5585;52.530;7.320;2023-01-16T12:17:26;1.10;;;0.77;;
11064;SDS011;5585;52.530;7.320;2023-01-16T12:20:05;2.40;;;0.90;;
11064;SDS011;5585;52.530;7.320;2023-01-16T12:22:38;1.23;;;0.70;;
11064;SDS011;5585;52.530;7.320;2023-01-16T12:25:13;1.80;;;0.80;;
11064;SDS011;5585;52.530;7.320;2023-01-16T12:27:43;2.13;;;1.00;;
11064;SDS011;5585;52.530;7.320;2023-01-16T12:30:18;1.47;;;0.77;;
11064;SDS011;5585;52.530;7.320;2023-01-16T12:32:51;2.93;;;1.00;;
11064;SDS011;5585;52.530;7.320;2023-01-16T12:35:22;1.40;;;0.60;;
11064;SDS011;5585;52.530;7.320;2023-01-16T12:37:58;3.07;;;1.00;;
11064;SDS011;5585;52.530;7.320;2023-01-16T12:40:32;2.27;;;0.70;;
11064;SDS011;5585;52.530;7.320;2023-01-16T12:43:04;0.93;;;0.80;;
11064;SDS011;5585;52.530;7.320;2023-01-16T12:45:49;1.90;;;0.70;;
11064;SDS011;5585;52.530;7.320;2023-01-16T12:48:21;0.90;;;0.70;;
11064;SDS011;5585;52.530;7.320;2023-01-16T12:50:54;1.80;;;0.70;;
11064;SDS011;5585;52.530;7.320;2023-01-16T12:56:13;0.90;;;0.60;;
11064;SDS011;5585;52.530;7.320;2023-01-16T12:58:45;1.57;;;0.70;;
11064;SDS011;5585;52.530;7.320;2023-01-16T13:01:16;1.03;;;0.70;;
11064;SDS011;5585;52.530;7.320;2023-01-16T13:03:45;1.70;;;0.73;;
11064;SDS011;5585;52.530;7.320;2023-01-16T13:06:14;2.27;;;0.90;;
11064;SDS011;5585;52.530;7.320;2023-01-16T13:08:42;1.37;;;0.70;;
11064;SDS011;5585;52.530;7.320;2023-01-16T13:11:12;1.67;;;0.60;;
11064;SDS011;5585;52.530;7.320;2023-01-16T13:13:59;1.57;;;0.70;;
11064;SDS011;5585;52.530;7.320;2023-01-16T13:16:29;1.97;;;0.97;;
11064;SDS011;5585;52.530;7.320;2023-01-16T13:18:58;0.50;;;0.40;;
11064;SDS011;5585;52.530;7.320;2023-01-16T13:21:26;1.70;;;0.60;;
11064;SDS011;5585;52.530;7.320;2023-01-16T13:23:54;0.60;;;0.57;;
11064;SDS011;5585;52.530;7.320;2023-01-16T13:26:21;1.57;;;0.60;;
11064;SDS011;5585;52.530;7.320;2023-01-16T13:28:51;0.87;;;0.47;;
11064;SDS011;5585;52.530;7.320;2023-01-16T13:31:20;1.00;;;0.50;;
11064;SDS011;5585;52.530;7.320;2023-01-16T13:33:51;0.97;;;0.50;;
11064;SDS011;5585;52.530;7.320;2023-01-16T13:39:13;1.60;;;0.50;;
11064;SDS011;5585;52.530;7.320;2023-01-16T13:41:43;0.93;;;0.40;;
11064;SDS011;5585;52.530;7.320;2023-01-16T13:44:12;0.43;;;0.30;;
11064;SDS011;5585;52.530;7.320;2023-01-16T13:47:01;0.90;;;0.40;;
11064;SDS011;5585;52.530;7.320;2023-01-16T13:49:30;0.80;;;0.40;;
11064;SDS011;5585;52.530;7.320;2023-01-16T13:51:56;1.60;;;0.60;;
11064;SDS011;5585;52.530;7.320;2023-01-16T13:54:25;0.87;;;0.50;;
11064;SDS011;5585;52.530;7.320;2023-01-16T13:56:58;0.70;;;0.43;;
11064;SDS011;5585;52.530;7.320;2023-01-16T13:59:33;0.63;;;0.30;;
11064;SDS011;5585;52.530;7.320;2023-01-16T14:02:00;0.43;;;0.30;;
11064;SDS011;5585;52.530;7.320;2023-01-16T14:04:30;0.73;;;0.30;;
11064;SDS011;5585;52.530;7.320;2023-01-16T14:06:57;1.73;;;0.60;;
11064;SDS011;5585;52.530;7.320;2023-01-16T14:12:31;1.40;;;0.83;;
11064;SDS011;5585;52.530;7.320;2023-01-16T14:15:08;0.87;;;0.50;;
11064;SDS011;5585;52.530;7.320;2023-01-16T14:18:00;0.90;;;0.60;;
11064;SDS011;5585;52.530;7.320;2023-01-16T14:20:35;1.13;;;0.60;;
11064;SDS011;5585;52.530;7.320;2023-01-16T14:23:03;1.13;;;0.63;;
11064;SDS011;5585;52.530;7.320;2023-01-16T14:25:49;0.60;;;0.50;;
11064;SDS011;5585;52.530;7.320;2023-01-16T14:28:17;0.53;;;0.40;;
11064;SDS011;5585;52.530;7.320;2023-01-16T14:30:45;1.37;;;0.50;;
11064;SDS011;5585;52.530;7.320;2023-01-16T14:33:12;0.80;;;0.50;;
11064;SDS011;5585;52.530;7.320;2023-01-16T14:35:43;0.90;;;0.50;;
11064;SDS011;5585;52.530;7.320;2023-01-16T14:38:12;1.23;;;0.53;;
11064;SDS011;5585;52.530;7.320;2023-01-16T14:40:45;0.53;;;0.40;;
11064;SDS011;5585;52.530;7.320;2023-01-16T14:43:30;1.20;;;0.50;;
11064;SDS011;5585;52.530;7.320;2023-01-16T14:46:31;1.30;;;0.60;;
11064;SDS011;5585;52.530;7.320;2023-01-16T14:52:20;0.83;;;0.50;;
11064;SDS011;5585;52.530;7.320;2023-01-16T14:55:18;1.20;;;0.60;;
11064;SDS011;5585;52.530;7.320;2023-01-16T14:57:45;1.07;;;0.70;;
11064;SDS011;5585;52.530;7.320;2023-01-16T15:00:13;0.73;;;0.60;;
11064;SDS011;5585;52.530;7.320;2023-01-16T15:02:44;0.70;;;0.53;;
11064;SDS011;5585;52.530;7.320;2023-01-16T15:05:13;0.70;;;0.70;;
11064;SDS011;5585;52.530;7.320;2023-01-16T15:07:42;0.60;;;0.60;;
11064;SDS011;5585;52.530;7.320;2023-01-16T15:10:10;1.73;;;1.03;;
11064;SDS011;5585;52.530;7.320;2023-01-16T15:12:38;0.50;;;0.50;;
11064;SDS011;5585;52.530;7.320;2023-01-16T15:15:05;2.47;;;0.63;;
11064;SDS011;5585;52.530;7.320;2023-01-16T15:17:44;0.90;;;0.60;;
11064;SDS011;5585;52.530;7.320;2023-01-16T15:20:28;0.90;;;0.77;;
11064;SDS011;5585;52.530;7.320;2023-01-16T15:23:23;1.80;;;0.60;;
11064;SDS011;5585;52.530;7.320;2023-01-16T15:25:59;1.50;;;0.80;;
11064;SDS011;5585;52.530;7.320;2023-01-16T15:28:30;0.90;;;0.70;;
11064;SDS011;5585;52.530;7.320;2023-01-16T15:30:59;1.23;;;0.60;;